createdAt,value
2022-08-03T00:00:58.896Z,99.81
2022-08-03T00:03:29.502Z,99.94
2022-08-03T00:06:03.852Z,99.99
2022-08-03T00:08:40.137Z,99.99
2022-08-03T00:11:10.532Z,99.99
2022-08-03T00:13:40.533Z,99.99
2022-08-03T00:16:12.249Z,99.99
2022-08-03T00:18:43.076Z,99.99
2022-08-03T00:21:13.468Z,99.99
2022-08-03T00:23:51.537Z,99.99
2022-08-03T00:26:23.496Z,99.99
2022-08-03T00:28:53.889Z,99.99
2022-08-03T00:31:39.749Z,99.99
2022-08-03T00:34:14.376Z,99.99
2022-08-03T00:36:44.664Z,99.99
2022-08-03T00:39:15.249Z,99.99
2022-08-03T00:41:45.241Z,99.99
2022-08-03T00:44:15.306Z,99.99
2022-08-03T00:46:46.162Z,99.99
2022-08-03T00:49:17.275Z,99.99
2022-08-03T00:51:48.810Z,99.99
2022-08-03T00:54:20.277Z,99.99
2022-08-03T00:56:59.435Z,99.99
2022-08-03T00:59:32.499Z,99.99
2022-08-03T01:02:02.710Z,99.99
2022-08-03T01:04:32.741Z,99.99
2022-08-03T01:07:14.751Z,99.99
2022-08-03T01:10:03.449Z,99.99
2022-08-03T01:12:57.911Z,99.99
2022-08-03T01:15:47.995Z,99.99
2022-08-03T01:18:27.371Z,99.99
2022-08-03T01:21:02.688Z,99.99
2022-08-03T01:23:54.201Z,99.99
2022-08-03T01:27:00.031Z,99.99
2022-08-03T01:29:51.717Z,99.99
2022-08-03T01:32:53.268Z,99.99
2022-08-03T01:36:01.449Z,99.99
2022-08-03T01:38:37.351Z,99.99
2022-08-03T01:41:13.696Z,99.99
2022-08-03T01:44:28.359Z,99.99
2022-08-03T01:46:48.918Z,99.99
2022-08-03T01:49:19.794Z,99.99
2022-08-03T01:52:03.521Z,99.99
2022-08-03T01:54:42.575Z,99.99
2022-08-03T01:57:14.588Z,99.99
2022-08-03T01:59:47.102Z,99.99
2022-08-03T02:02:32.895Z,99.99
2022-08-03T02:05:10.934Z,99.99
2022-08-03T02:07:47.905Z,99.99
2022-08-03T02:10:23.566Z,99.99
2022-08-03T02:13:09.536Z,99.99
2022-08-03T02:15:40.894Z,99.99
2022-08-03T02:18:12.847Z,99.99
2022-08-03T02:20:45.908Z,99.99
2022-08-03T02:23:19.675Z,99.99
2022-08-03T02:25:55.163Z,99.99
2022-08-03T02:28:33.564Z,99.99
2022-08-03T02:31:13.293Z,99.99
2022-08-03T02:33:54.967Z,99.99
2022-08-03T02:36:32.764Z,99.99
2022-08-03T02:39:05.165Z,99.99
2022-08-03T02:41:43.531Z,99.99
2022-08-03T02:44:15.297Z,99.99
2022-08-03T02:46:49.349Z,99.99
2022-08-03T02:49:49.759Z,99.99
2022-08-03T02:52:15.646Z,99.99
2022-08-03T02:54:48.350Z,99.99
2022-08-03T02:57:20.542Z,99.99
2022-08-03T02:59:51.487Z,99.99
2022-08-03T03:02:22.732Z,99.99
2022-08-03T03:05:52.072Z,99.99
2022-08-03T03:07:52.110Z,99.99
2022-08-03T03:10:24.545Z,99.99
2022-08-03T03:12:58.384Z,99.99
2022-08-03T03:15:30.788Z,99.99
2022-08-03T03:18:03.188Z,99.99
2022-08-03T03:20:35.064Z,99.99
2022-08-03T03:23:06.743Z,99.99
2022-08-03T03:25:38.158Z,99.99
2022-08-03T03:28:09.405Z,99.99
2022-08-03T03:30:39.901Z,99.99
2022-08-03T03:33:10.357Z,99.99
2022-08-03T03:35:42.683Z,99.99
2022-08-03T03:38:13.629Z,99.99
2022-08-03T03:40:44.121Z,99.99
2022-08-03T03:43:14.951Z,99.99
2022-08-03T03:45:45.507Z,99.99
2022-08-03T03:48:16.070Z,99.99
2022-08-03T03:50:47.196Z,99.99
2022-08-03T03:53:17.375Z,99.99
2022-08-03T03:55:59.348Z,99.99
2022-08-03T03:58:34.883Z,99.99
2022-08-03T04:01:05.068Z,99.99
2022-08-03T04:03:34.997Z,99.99
2022-08-03T04:06:23.936Z,99.99
2022-08-03T04:09:20.379Z,99.99
2022-08-03T04:11:59.475Z,99.99
2022-08-03T04:14:35.529Z,99.99
2022-08-03T04:17:10.696Z,99.99
2022-08-03T04:19:52.432Z,99.99
2022-08-03T04:22:28.105Z,99.99
2022-08-03T04:25:07.114Z,99.99
2022-08-03T04:27:40.438Z,99.99
2022-08-03T04:30:13.388Z,99.99
2022-08-03T04:32:46.416Z,99.99
2022-08-03T04:35:20.814Z,99.99
2022-08-03T04:37:55.000Z,99.99
2022-08-03T04:40:32.935Z,99.99
2022-08-03T04:43:04.620Z,99.99
2022-08-03T04:45:35.482Z,99.99
2022-08-03T04:48:07.552Z,99.99
2022-08-03T04:50:38.464Z,99.99
2022-08-03T04:53:09.657Z,99.99
2022-08-03T04:55:39.562Z,99.99
2022-08-03T04:58:09.861Z,99.99
2022-08-03T05:00:40.613Z,99.99
2022-08-03T05:03:23.920Z,99.99
2022-08-03T05:06:01.694Z,99.99
2022-08-03T05:08:45.968Z,99.99
2022-08-03T05:11:18.241Z,99.99
2022-08-03T05:13:49.434Z,99.99
2022-08-03T05:16:20.214Z,99.99
2022-08-03T05:18:50.487Z,99.99
2022-08-03T05:21:20.487Z,99.99
2022-08-03T05:23:51.096Z,99.99
2022-08-03T05:26:21.980Z,99.99
2022-08-03T05:28:52.024Z,99.99
2022-08-03T05:31:21.992Z,99.99
2022-08-03T05:33:52.441Z,99.99
2022-08-03T05:36:22.785Z,99.99
2022-08-03T05:38:53.329Z,99.99
2022-08-03T05:41:37.317Z,99.99
2022-08-03T05:44:08.192Z,99.99
2022-08-03T05:46:38.519Z,99.99
2022-08-03T05:49:09.123Z,99.99
2022-08-03T05:51:39.284Z,99.99
2022-08-03T05:54:09.290Z,99.99
2022-08-03T05:56:42.235Z,99.99
2022-08-03T05:59:37.111Z,99.99
2022-08-03T06:02:03.610Z,99.99
2022-08-03T06:04:33.565Z,99.99
2022-08-03T06:07:03.828Z,99.99
2022-08-03T06:10:34.880Z,99.99
2022-08-03T06:12:25.145Z,99.99
2022-08-03T06:14:55.444Z,99.99
2022-08-03T06:17:25.542Z,99.99
2022-08-03T06:19:57.149Z,99.99
2022-08-03T06:22:27.437Z,99.99
2022-08-03T06:25:04.337Z,99.99
2022-08-03T06:27:41.255Z,99.99
2022-08-03T06:30:13.159Z,99.99
2022-08-03T06:32:43.698Z,99.99
2022-08-03T06:35:22.945Z,99.99
2022-08-03T06:37:54.948Z,99.99
2022-08-03T06:40:35.396Z,99.99
2022-08-03T06:43:08.471Z,99.99
2022-08-03T06:45:43.306Z,99.99
2022-08-03T06:48:17.806Z,99.99
2022-08-03T06:50:47.767Z,99.99
2022-08-03T06:53:21.166Z,99.99
2022-08-03T06:55:54.719Z,99.99
2022-08-03T06:58:25.570Z,99.99
2022-08-03T07:00:55.525Z,99.99
2022-08-03T07:03:25.900Z,99.99
2022-08-03T07:05:56.700Z,99.99
2022-08-03T07:08:33.829Z,99.99
2022-08-03T07:11:04.704Z,99.99
2022-08-03T07:13:35.031Z,99.99
2022-08-03T07:16:05.757Z,99.99
2022-08-03T07:18:35.741Z,99.99
2022-08-03T07:21:05.898Z,99.99
2022-08-03T07:23:36.298Z,99.99
2022-08-03T07:26:07.611Z,99.99
2022-08-03T07:28:37.717Z,99.99
2022-08-03T07:31:07.577Z,99.99
2022-08-03T07:33:38.119Z,99.99
2022-08-03T07:36:08.512Z,99.99
2022-08-03T07:38:39.095Z,99.99
2022-08-03T07:41:09.612Z,99.99
2022-08-03T07:43:39.594Z,99.99
2022-08-03T07:46:09.983Z,99.99
2022-08-03T07:48:40.586Z,99.99
2022-08-03T07:51:10.458Z,99.99
2022-08-03T07:53:44.426Z,99.99
2022-08-03T07:56:18.683Z,99.99
2022-08-03T07:58:49.024Z,99.99
2022-08-03T08:01:20.852Z,99.99
2022-08-03T08:03:53.640Z,99.99
2022-08-03T08:06:24.227Z,99.99
2022-08-03T08:08:56.337Z,99.99
2022-08-03T08:11:27.049Z,99.99
2022-08-03T08:13:57.152Z,99.99
2022-08-03T08:16:27.070Z,99.99
2022-08-03T08:18:57.394Z,99.99
2022-08-03T08:21:27.850Z,99.99
2022-08-03T08:24:19.780Z,99.99
2022-08-03T08:26:50.776Z,99.99
2022-08-03T08:29:24.434Z,99.99
2022-08-03T08:31:55.274Z,99.99
2022-08-03T08:34:25.999Z,99.99
2022-08-03T08:36:56.264Z,99.99
2022-08-03T08:39:26.200Z,99.99
2022-08-03T08:41:56.331Z,99.99
2022-08-03T08:44:26.725Z,99.99
2022-08-03T08:46:59.359Z,99.99
2022-08-03T08:49:30.962Z,99.99
2022-08-03T08:52:02.864Z,99.99
2022-08-03T08:54:34.883Z,99.99
2022-08-03T08:57:21.325Z,99.99
2022-08-03T09:00:00.888Z,99.99
2022-08-03T09:02:32.575Z,99.99
2022-08-03T09:05:07.401Z,99.99
2022-08-03T09:07:38.675Z,99.99
2022-08-03T09:10:13.333Z,99.99
2022-08-03T09:12:52.796Z,99.99
2022-08-03T09:15:25.991Z,99.99
2022-08-03T09:17:58.760Z,99.99
2022-08-03T09:20:31.929Z,99.99
2022-08-03T09:23:44.639Z,99.99
2022-08-03T09:26:02.820Z,99.99
2022-08-03T09:28:59.388Z,99.99
2022-08-03T09:31:37.389Z,99.99
2022-08-03T09:34:12.471Z,99.99
2022-08-03T09:36:47.525Z,99.99
2022-08-03T09:39:41.582Z,99.99
2022-08-03T09:42:15.563Z,99.99
2022-08-03T09:44:50.981Z,99.99
2022-08-03T09:47:32.501Z,99.99
2022-08-03T09:50:14.244Z,99.99
2022-08-03T09:52:52.071Z,99.99
2022-08-03T09:56:31.137Z,99.99
2022-08-03T09:58:15.496Z,99.99
2022-08-03T10:01:01.426Z,99.99
2022-08-03T10:04:03.263Z,99.99
2022-08-03T10:06:29.069Z,99.99
2022-08-03T10:09:09.790Z,99.99
2022-08-03T10:11:42.447Z,99.99
2022-08-03T10:14:21.052Z,99.99
2022-08-03T10:16:51.806Z,99.99
2022-08-03T10:19:22.244Z,99.99
2022-08-03T10:21:58.231Z,99.99
2022-08-03T10:24:32.334Z,99.99
2022-08-03T10:27:09.243Z,99.99
2022-08-03T10:30:05.028Z,99.99
2022-08-03T10:32:41.122Z,99.99
2022-08-03T10:35:23.071Z,99.99
2022-08-03T10:38:04.714Z,99.99
2022-08-03T10:40:48.627Z,99.99
2022-08-03T10:43:47.337Z,99.99
2022-08-03T10:46:20.849Z,99.99
2022-08-03T10:48:53.972Z,99.99
2022-08-03T10:51:25.710Z,99.99
2022-08-03T10:53:56.041Z,99.99
2022-08-03T10:56:52.603Z,99.99
2022-08-03T10:59:52.219Z,99.99
2022-08-03T11:02:22.678Z,99.99
2022-08-03T11:05:29.111Z,99.99
2022-08-03T11:08:20.710Z,99.99
2022-08-03T11:10:53.896Z,99.99
2022-08-03T11:13:27.077Z,99.99
2022-08-03T11:16:02.442Z,99.99
2022-08-03T11:18:35.259Z,99.99
2022-08-03T11:21:06.233Z,99.99
2022-08-03T11:24:04.779Z,99.99
2022-08-03T11:26:36.537Z,99.99
2022-08-03T11:29:35.297Z,99.99
2022-08-03T11:32:06.376Z,99.99
2022-08-03T11:34:57.207Z,99.99
2022-08-03T11:37:32.888Z,99.99
2022-08-03T11:40:03.842Z,99.99
2022-08-03T11:42:37.990Z,99.99
2022-08-03T11:45:11.288Z,99.99
2022-08-03T11:47:50.826Z,99.99
2022-08-03T11:50:24.066Z,99.99
2022-08-03T11:52:55.659Z,99.99
2022-08-03T11:55:30.491Z,99.77
2022-08-03T11:58:58.163Z,99.25
2022-08-03T12:00:52.874Z,98.85
2022-08-03T12:03:23.501Z,99.17
2022-08-03T12:05:55.527Z,99.49
2022-08-03T12:08:29.209Z,97.45
2022-08-03T12:11:01.005Z,96.91
2022-08-03T12:14:44.706Z,97.41
2022-08-03T12:16:48.868Z,96.81
2022-08-03T12:19:19.200Z,95.73
2022-08-03T12:21:57.420Z,94.33
2022-08-03T12:24:30.639Z,92.70
2022-08-03T12:27:01.167Z,92.68
2022-08-03T12:29:31.064Z,93.64
2022-08-03T12:32:01.455Z,93.41
2022-08-03T12:34:50.929Z,92.48
2022-08-03T12:37:23.674Z,93.57
2022-08-03T12:40:03.007Z,93.09
2022-08-03T12:42:38.508Z,94.36
2022-08-03T12:45:21.519Z,92.90
2022-08-03T12:47:57.102Z,91.37
2022-08-03T12:50:31.565Z,90.47
2022-08-03T12:53:04.422Z,89.68
2022-08-03T12:55:57.135Z,91.14
2022-08-03T12:58:41.421Z,89.91
2022-08-03T13:01:13.797Z,90.21
2022-08-03T13:03:52.549Z,90.47
2022-08-03T13:06:27.675Z,89.19
2022-08-03T13:09:08.719Z,88.66
2022-08-03T13:11:57.693Z,87.42
2022-08-03T13:14:29.551Z,87.65
2022-08-03T13:16:59.503Z,87.70
2022-08-03T13:19:30.012Z,88.09
2022-08-03T13:22:04.156Z,87.73
2022-08-03T13:24:35.538Z,87.20
2022-08-03T13:28:01.958Z,86.03
2022-08-03T13:29:58.629Z,84.73
2022-08-03T13:32:28.995Z,84.86
2022-08-03T13:35:00.114Z,83.72
2022-08-03T13:37:31.787Z,83.40
2022-08-03T13:40:04.700Z,82.60
2022-08-03T13:42:38.951Z,80.46
2022-08-03T13:45:11.405Z,80.13
2022-08-03T13:47:41.613Z,80.18
2022-08-03T13:50:11.645Z,79.40
2022-08-03T13:52:42.411Z,79.55
2022-08-03T13:55:13.013Z,78.84
2022-08-03T13:58:03.232Z,79.60
2022-08-03T14:00:33.435Z,78.06
2022-08-03T14:03:12.812Z,77.43
2022-08-03T14:05:45.752Z,77.14
2022-08-03T14:08:16.035Z,77.32
2022-08-03T14:10:47.166Z,75.59
2022-08-03T14:13:18.374Z,74.43
2022-08-03T14:15:51.216Z,74.75
2022-08-03T14:18:27.673Z,74.38
2022-08-03T14:21:04.942Z,73.90
2022-08-03T14:23:38.891Z,72.02
2022-08-03T14:26:11.128Z,71.86
2022-08-03T14:28:41.940Z,70.00
2022-08-03T14:32:09.020Z,69.34
2022-08-03T14:34:02.842Z,68.30
2022-08-03T14:36:33.712Z,68.07
2022-08-03T14:39:05.642Z,67.72
2022-08-03T14:41:35.568Z,67.01
2022-08-03T14:44:06.419Z,64.88
2022-08-03T14:46:37.211Z,65.51
2022-08-03T14:50:36.511Z,65.07
2022-08-03T14:51:57.573Z,65.86
2022-08-03T14:54:27.785Z,64.94
2022-08-03T14:56:58.441Z,64.04
2022-08-03T14:59:29.372Z,64.19
2022-08-03T15:02:23.856Z,70.18
2022-08-03T15:04:54.906Z,63.72
2022-08-03T15:07:25.011Z,63.90
2022-08-03T15:09:55.141Z,63.73
2022-08-03T15:12:25.385Z,62.86
2022-08-03T15:14:55.291Z,62.19
2022-08-03T15:17:25.836Z,61.59
2022-08-03T15:20:02.236Z,62.35
2022-08-03T15:22:46.829Z,62.89
2022-08-03T15:26:28.009Z,62.72
2022-08-03T15:28:07.630Z,62.47
2022-08-03T15:30:38.922Z,62.39
2022-08-03T15:33:09.802Z,62.68
2022-08-03T15:35:39.753Z,61.75
2022-08-03T15:38:10.087Z,61.08
2022-08-03T15:40:40.795Z,60.80
2022-08-03T15:43:11.646Z,60.11
2022-08-03T15:45:41.882Z,58.08
2022-08-03T15:48:12.206Z,58.04
2022-08-03T15:50:42.679Z,56.02
2022-08-03T15:53:13.990Z,62.13
2022-08-03T15:55:45.049Z,55.19
2022-08-03T15:59:04.410Z,54.62
2022-08-03T16:01:07.573Z,54.54
2022-08-03T16:03:38.284Z,54.39
2022-08-03T16:06:09.939Z,55.86
2022-08-03T16:08:40.125Z,54.75
2022-08-03T16:11:10.646Z,53.17
2022-08-03T16:14:13.851Z,53.10
2022-08-03T16:16:31.366Z,52.59
2022-08-03T16:19:05.520Z,52.89
2022-08-03T16:21:38.588Z,51.60
2022-08-03T16:24:21.923Z,52.91
2022-08-03T16:27:00.525Z,51.11
2022-08-03T16:29:31.052Z,51.28
2022-08-03T16:32:09.482Z,51.22
2022-08-03T16:34:41.241Z,52.51
2022-08-03T16:37:37.182Z,51.41
2022-08-03T16:40:01.677Z,57.73
2022-08-03T16:42:31.945Z,50.65
2022-08-03T16:45:02.274Z,51.17
2022-08-03T16:47:32.239Z,50.87
2022-08-03T16:50:07.257Z,50.84
2022-08-03T16:52:42.099Z,52.00
2022-08-03T16:55:43.003Z,51.00
2022-08-03T16:58:09.055Z,51.46
2022-08-03T17:00:44.259Z,50.31
2022-08-03T17:03:24.413Z,49.92
2022-08-03T17:05:55.486Z,50.66
2022-08-03T17:08:30.097Z,50.88
2022-08-03T17:11:00.372Z,50.70
2022-08-03T17:13:39.108Z,50.84
2022-08-03T17:16:15.406Z,51.34
2022-08-03T17:19:02.137Z,51.82
2022-08-03T17:21:39.276Z,51.65
2022-08-03T17:24:40.846Z,51.67
2022-08-03T17:28:41.765Z,51.24
2022-08-03T17:30:11.963Z,50.94
2022-08-03T17:32:57.633Z,51.39
2022-08-03T17:35:34.424Z,51.29
2022-08-03T17:38:13.798Z,51.03
2022-08-03T17:40:48.166Z,51.24
2022-08-03T17:44:14.168Z,51.41
2022-08-03T17:46:12.268Z,51.03
2022-08-03T17:48:43.282Z,51.48
2022-08-03T17:51:21.602Z,51.39
2022-08-03T17:53:55.301Z,53.94
2022-08-03T17:56:40.380Z,53.03
2022-08-03T17:59:25.207Z,52.52
2022-08-03T18:03:06.965Z,54.24
2022-08-03T18:06:12.540Z,52.95
2022-08-03T18:08:40.218Z,52.91
2022-08-03T18:14:30.062Z,53.57
2022-08-03T18:17:10.361Z,54.21
2022-08-03T18:20:03.773Z,54.17
2022-08-03T18:22:31.895Z,53.78
2022-08-03T18:25:07.778Z,54.00
2022-08-03T18:27:42.619Z,54.47
2022-08-03T18:30:18.698Z,54.48
2022-08-03T18:33:00.437Z,54.53
2022-08-03T18:35:53.379Z,54.57
2022-08-03T18:38:23.801Z,55.38
2022-08-03T18:40:54.114Z,54.80
2022-08-03T18:43:47.188Z,55.82
2022-08-03T18:46:45.559Z,56.18
2022-08-03T18:49:52.793Z,56.97
2022-08-03T18:52:27.750Z,56.06
2022-08-03T18:55:19.841Z,56.69
2022-08-03T18:58:02.108Z,57.28
2022-08-03T19:00:53.854Z,57.04
2022-08-03T19:03:41.283Z,57.04
2022-08-03T19:06:23.176Z,57.57
2022-08-03T19:09:14.184Z,58.00
2022-08-03T19:12:12.593Z,57.73
2022-08-03T19:14:54.575Z,57.89
2022-08-03T19:17:29.438Z,58.05
2022-08-03T19:20:02.574Z,58.65
2022-08-03T19:22:34.319Z,58.69
2022-08-03T19:25:07.634Z,58.79
2022-08-03T19:27:45.438Z,59.07
2022-08-03T19:30:38.943Z,59.49
2022-08-03T19:33:14.918Z,59.90
2022-08-03T19:35:54.991Z,59.74
2022-08-03T19:38:29.681Z,59.97
2022-08-03T19:41:04.459Z,60.20
2022-08-03T19:43:53.933Z,60.43
2022-08-03T19:46:34.516Z,61.14
2022-08-03T19:49:16.357Z,61.65
2022-08-03T19:52:02.345Z,61.97
2022-08-03T19:54:45.804Z,65.37
2022-08-03T19:57:26.831Z,65.49
2022-08-03T19:59:58.839Z,66.46
2022-08-03T20:02:35.940Z,66.68
2022-08-03T20:05:14.753Z,67.19
2022-08-03T20:07:48.622Z,66.83
2022-08-03T20:10:20.646Z,66.21
2022-08-03T20:12:51.578Z,71.06
2022-08-03T20:15:22.463Z,71.20
2022-08-03T20:18:02.359Z,72.10
2022-08-03T20:20:36.212Z,73.72
2022-08-03T20:23:15.049Z,75.01
2022-08-03T20:25:58.673Z,75.29
2022-08-03T20:29:10.399Z,76.81
2022-08-03T20:31:41.588Z,76.85
2022-08-03T20:34:12.360Z,77.70
2022-08-03T20:36:47.777Z,78.65
2022-08-03T20:39:17.650Z,79.16
2022-08-03T20:41:49.320Z,79.66
2022-08-03T20:44:19.563Z,79.80
2022-08-03T20:47:00.514Z,81.19
2022-08-03T20:49:45.655Z,82.06
2022-08-03T20:52:18.413Z,82.24
2022-08-03T20:54:50.168Z,82.56
2022-08-03T20:57:20.704Z,84.15
2022-08-03T20:59:51.732Z,84.95
2022-08-03T21:02:29.945Z,85.98
2022-08-03T21:05:08.556Z,86.70
2022-08-03T21:08:06.508Z,87.07
2022-08-03T21:10:42.148Z,87.84
2022-08-03T21:13:04.851Z,53.28
2022-08-03T21:13:29.748Z,88.19
2022-08-03T21:16:14.198Z,88.31
2022-08-03T21:18:50.559Z,87.55
2022-08-03T21:21:23.159Z,87.11
2022-08-03T21:23:56.438Z,87.09
2022-08-03T21:26:29.281Z,86.95
2022-08-03T21:28:59.698Z,87.33
2022-08-03T21:31:29.792Z,87.55
2022-08-03T21:34:03.703Z,87.95
2022-08-03T21:36:36.957Z,88.41
2022-08-03T21:39:09.761Z,88.44
2022-08-03T21:41:41.868Z,88.60
2022-08-03T21:44:12.593Z,88.54
2022-08-03T21:46:44.184Z,88.96
2022-08-03T21:50:04.478Z,89.66
2022-08-03T21:52:07.838Z,90.12
2022-08-03T21:54:42.858Z,90.47
2022-08-03T21:57:23.794Z,91.42
2022-08-03T21:59:57.839Z,91.79
2022-08-03T22:02:32.067Z,91.93
2022-08-03T22:05:04.885Z,92.31
2022-08-03T22:07:36.792Z,92.68
2022-08-03T22:10:08.875Z,93.11
2022-08-03T22:12:40.042Z,93.46
2022-08-03T22:15:13.181Z,93.82
2022-08-03T22:17:55.596Z,94.18
2022-08-03T22:20:27.727Z,94.37
2022-08-03T22:23:02.183Z,94.57
2022-08-03T22:25:35.770Z,94.57
2022-08-03T22:28:16.192Z,94.86
2022-08-03T22:30:48.953Z,94.70
2022-08-03T22:33:20.395Z,95.12
2022-08-03T22:35:53.200Z,95.21
2022-08-03T22:38:24.115Z,95.43
2022-08-03T22:40:55.109Z,95.50
2022-08-03T22:43:29.245Z,95.49
2022-08-03T22:46:09.320Z,95.95
2022-08-03T22:48:43.428Z,96.14
2022-08-03T22:51:13.878Z,96.29
2022-08-03T22:53:46.357Z,96.77
2022-08-03T22:56:17.014Z,97.08
2022-08-03T22:58:47.627Z,97.09
2022-08-03T23:01:21.460Z,97.06
2022-08-03T23:04:02.078Z,97.49
2022-08-03T23:06:40.018Z,97.61
2022-08-03T23:09:16.091Z,97.92
2022-08-03T23:11:46.989Z,97.73
2022-08-03T23:14:19.250Z,97.68
2022-08-03T23:16:52.019Z,97.74
2022-08-03T23:19:25.871Z,97.91
2022-08-03T23:22:02.444Z,98.03
2022-08-03T23:24:38.195Z,98.21
2022-08-03T23:27:10.688Z,98.39
2022-08-03T23:29:45.081Z,98.81
2022-08-03T23:32:15.899Z,98.70
2022-08-03T23:35:07.441Z,99.07
2022-08-03T23:38:03.926Z,99.28
2022-08-03T23:40:32.286Z,99.36
2022-08-03T23:43:04.177Z,99.44
2022-08-03T23:45:37.864Z,99.63
2022-08-03T23:48:08.476Z,99.72
2022-08-03T23:50:49.699Z,99.82
2022-08-03T23:53:26.357Z,99.82
2022-08-03T23:56:26.165Z,99.99
2022-08-03T23:59:15.864Z,99.99
